Time,TemperatureF,DewpointF,PressureIn,WindDirection,WindDirectionDegrees,WindSpeedMPH,WindSpeedGustMPH,Humidity,HourlyPrecipIn,Conditions,Clouds,dailyrainin,SoftwareType,DateUTC
2013-04-14 00:02:00,41.0,38.0,29.98,South,169,0.0,0.0,88,0.00,,,0.00,,2013-04-14 05:02:00,
2013-04-14 00:12:00,41.0,38.0,29.98,South,169,0.0,0.0,88,0.00,,,0.00,,2013-04-14 05:12:00,
2013-04-14 00:22:00,41.0,37.0,29.98,South,169,0.0,0.0,87,0.00,,,0.00,,2013-04-14 05:22:00,
2013-04-14 00:32:00,42.0,39.0,29.98,South,169,0.0,0.0,88,0.00,,,0.00,,2013-04-14 05:32:00,
2013-04-14 00:42:00,42.0,39.0,29.98,South,169,0.0,0.0,88,0.00,,,0.00,,2013-04-14 05:42:00,
2013-04-14 00:52:00,42.0,39.0,29.98,ESE,121,0.0,2.0,88,0.00,,,0.00,,2013-04-14 05:52:00,
2013-04-14 01:02:00,42.0,39.0,29.98,ESE,121,0.0,1.0,88,0.00,,,0.00,,2013-04-14 06:02:00,
2013-04-14 01:12:00,42.0,39.0,29.98,ESE,121,0.0,1.0,88,0.00,,,0.00,,2013-04-14 06:12:00,
2013-04-14 01:22:00,42.0,39.0,29.98,ESE,122,1.0,3.0,88,0.00,,,0.00,,2013-04-14 06:22:00,
2013-04-14 01:32:00,43.0,39.0,29.99,ESE,109,1.0,4.0,87,0.00,,,0.00,,2013-04-14 06:32:00,
2013-04-14 01:42:00,43.0,39.0,29.99,ESE,109,1.0,4.0,87,0.00,,,0.00,,2013-04-14 06:42:00,
2013-04-14 01:52:00,43.0,39.0,30.00,ESE,120,0.0,4.0,87,0.00,,,0.00,,2013-04-14 06:52:00,
2013-04-14 02:02:00,43.0,39.0,29.99,East,96,1.0,3.0,87,0.00,,,0.00,,2013-04-14 07:02:00,
2013-04-14 02:12:00,43.0,39.0,29.99,East,96,1.0,3.0,87,0.00,,,0.00,,2013-04-14 07:12:00,
2013-04-14 02:22:00,43.0,39.0,29.99,ESE,106,2.0,5.0,87,0.00,,,0.00,,2013-04-14 07:22:00,
2013-04-14 02:32:00,43.0,39.0,29.98,ESE,109,2.0,5.0,87,0.00,,,0.00,,2013-04-14 07:32:00,
2013-04-14 02:42:00,43.0,39.0,29.98,ESE,109,2.0,5.0,87,0.00,,,0.00,,2013-04-14 07:42:00,
2013-04-14 02:52:00,43.0,39.0,29.97,East,100,4.0,6.0,86,0.00,,,0.00,,2013-04-14 07:52:00,
2013-04-14 03:02:00,44.0,39.0,29.97,East,94,2.0,6.0,84,0.00,,,0.00,,2013-04-14 08:02:00,
2013-04-14 03:12:00,44.0,39.0,29.97,East,94,2.0,6.0,84,0.00,,,0.00,,2013-04-14 08:12:00,
2013-04-14 03:22:00,43.0,39.0,29.96,ESE,103,3.0,5.0,86,0.00,,,0.00,,2013-04-14 08:22:00,
2013-04-14 03:32:00,43.0,39.0,29.98,East,87,1.0,3.0,86,0.00,,,0.00,,2013-04-14 08:32:00,
2013-04-14 03:42:00,43.0,39.0,29.98,East,87,1.0,3.0,86,0.00,,,0.00,,2013-04-14 08:42:00,
2013-04-14 03:52:00,43.0,39.0,29.97,ESE,104,4.0,6.0,86,0.00,,,0.00,,2013-04-14 08:52:00,
2013-04-14 04:03:00,43.0,39.0,29.96,ESE,117,4.0,8.0,87,0.00,,,0.00,,2013-04-14 09:03:00,
2013-04-14 04:12:00,43.0,39.0,29.96,ESE,117,4.0,8.0,87,0.00,,,0.00,,2013-04-14 09:12:00,
2013-04-14 04:22:00,43.0,39.0,29.96,ESE,107,4.0,8.0,86,0.00,,,0.00,,2013-04-14 09:22:00,
2013-04-14 04:33:00,43.0,39.0,29.96,ESE,110,4.0,7.0,86,0.00,,,0.00,,2013-04-14 09:33:00,
2013-04-14 04:42:00,43.0,39.0,29.96,ESE,110,4.0,7.0,86,0.00,,,0.00,,2013-04-14 09:42:00,
2013-04-14 04:53:00,43.0,39.0,29.95,ESE,120,6.0,9.0,87,0.00,,,0.00,,2013-04-14 09:53:00,
2013-04-14 05:03:00,43.0,40.0,29.94,ESE,109,7.0,10.0,88,0.00,,,0.00,,2013-04-14 10:03:00,
2013-04-14 05:12:00,43.0,40.0,29.94,ESE,109,7.0,10.0,88,0.00,,,0.00,,2013-04-14 10:12:00,
2013-04-14 05:23:00,43.0,40.0,29.93,ESE,117,7.0,11.0,89,0.00,,,0.00,,2013-04-14 10:23:00,
2013-04-14 05:32:00,43.0,40.0,29.92,SE,126,6.0,9.0,89,0.00,,,0.00,,2013-04-14 10:32:00,
2013-04-14 05:42:00,43.0,40.0,29.92,SE,126,6.0,9.0,89,0.00,,,0.00,,2013-04-14 10:42:00,
2013-04-14 05:52:00,43.0,40.0,29.92,ESE,105,5.0,9.0,88,0.00,,,0.00,,2013-04-14 10:52:00,
2013-04-14 06:02:00,42.0,39.0,29.91,East,101,5.0,9.0,89,0.00,,,0.00,,2013-04-14 11:02:00,
2013-04-14 06:12:00,42.0,39.0,29.91,East,101,5.0,9.0,89,0.00,,,0.00,,2013-04-14 11:12:00,
2013-04-14 06:22:00,42.0,39.0,29.91,East,97,6.0,9.0,89,0.00,,,0.00,,2013-04-14 11:22:00,
2013-04-14 06:32:00,42.0,39.0,29.90,East,98,6.0,8.0,89,0.00,,,0.00,,2013-04-14 11:32:00,
2013-04-14 06:42:00,42.0,39.0,29.90,East,98,6.0,8.0,89,0.00,,,0.00,,2013-04-14 11:42:00,
2013-04-14 06:52:00,42.0,39.0,29.89,East,86,6.0,10.0,90,0.00,,,0.00,,2013-04-14 11:52:00,
2013-04-14 07:02:00,42.0,39.0,29.90,East,86,6.0,9.0,90,0.00,,,0.00,,2013-04-14 12:02:00,
2013-04-14 07:12:00,42.0,39.0,29.90,East,86,6.0,9.0,90,0.00,,,0.00,,2013-04-14 12:12:00,
2013-04-14 07:22:00,42.0,39.0,29.90,ESE,102,6.0,9.0,90,0.00,,,0.00,,2013-04-14 12:22:00,
2013-04-14 07:32:00,42.0,39.0,29.89,ESE,115,8.0,11.0,90,0.00,,,0.00,,2013-04-14 12:32:00,
2013-04-14 07:42:00,42.0,39.0,29.89,ESE,115,8.0,11.0,90,0.00,,,0.00,,2013-04-14 12:42:00,
2013-04-14 07:52:00,43.0,39.0,29.90,East,98,10.0,15.0,87,0.00,,,0.00,,2013-04-14 12:52:00,
2013-04-14 08:02:00,44.0,41.0,29.91,SE,128,10.0,16.0,88,0.00,,,0.00,,2013-04-14 13:02:00,
2013-04-14 08:12:00,44.0,41.0,29.91,SE,128,10.0,16.0,88,0.00,,,0.00,,2013-04-14 13:12:00,
2013-04-14 08:22:00,44.0,40.0,29.91,ESE,111,11.0,18.0,87,0.00,,,0.00,,2013-04-14 13:22:00,
2013-04-14 08:32:00,45.0,41.0,29.91,ESE,116,11.0,18.0,87,0.00,,,0.00,,2013-04-14 13:32:00,
2013-04-14 08:42:00,45.0,41.0,29.91,ESE,116,11.0,18.0,87,0.00,,,0.00,,2013-04-14 13:42:00,
2013-04-14 08:52:00,46.0,42.0,29.91,SE,130,11.0,16.0,87,0.00,,,0.00,,2013-04-14 13:52:00,
2013-04-14 09:02:00,46.0,42.0,29.90,SE,133,10.0,15.0,87,0.00,,,0.00,,2013-04-14 14:02:00,
2013-04-14 09:12:00,46.0,42.0,29.90,SE,133,10.0,15.0,87,0.00,,,0.00,,2013-04-14 14:12:00,
2013-04-14 09:22:00,47.0,43.0,29.89,SE,136,10.0,15.0,87,0.00,,,0.00,,2013-04-14 14:22:00,
2013-04-14 09:32:00,48.0,44.0,29.88,SE,126,10.0,14.0,85,0.00,,,0.00,,2013-04-14 14:32:00,
2013-04-14 09:42:00,48.0,44.0,29.88,SE,126,10.0,14.0,85,0.00,,,0.00,,2013-04-14 14:42:00,
2013-04-14 09:52:00,50.0,46.0,29.88,SSE,152,11.0,15.0,86,0.00,,,0.00,,2013-04-14 14:52:00,
2013-04-14 10:02:00,53.0,47.0,29.88,SSE,147,14.0,21.0,80,0.00,,,0.00,,2013-04-14 15:02:00,
2013-04-14 10:12:00,53.0,47.0,29.88,SSE,147,14.0,21.0,80,0.00,,,0.00,,2013-04-14 15:12:00,
2013-04-14 10:22:00,53.0,47.0,29.88,SSE,149,13.0,19.0,79,0.00,,,0.00,,2013-04-14 15:22:00,
2013-04-14 10:33:00,55.0,48.0,29.87,SE,144,13.0,22.0,76,0.00,,,0.00,,2013-04-14 15:33:00,
2013-04-14 10:43:00,55.0,48.0,29.87,SE,144,13.0,22.0,76,0.00,,,0.00,,2013-04-14 15:43:00,
2013-04-14 10:53:00,56.0,49.0,29.86,SE,144,12.0,19.0,76,0.00,,,0.00,,2013-04-14 15:53:00,
2013-04-14 11:04:00,57.0,50.0,29.86,SSE,156,12.0,18.0,78,0.00,,,0.00,,2013-04-14 16:04:00,
2013-04-14 11:13:00,57.0,50.0,29.86,SSE,156,12.0,18.0,78,0.00,,,0.00,,2013-04-14 16:13:00,
2013-04-14 11:22:00,58.0,50.0,29.85,SSE,155,12.0,17.0,76,0.00,,,0.00,,2013-04-14 16:22:00,
2013-04-14 11:33:00,60.0,51.0,29.85,SSE,160,11.0,17.0,73,0.00,,,0.00,,2013-04-14 16:33:00,
2013-04-14 11:43:00,60.0,51.0,29.85,SSE,160,11.0,17.0,73,0.00,,,0.00,,2013-04-14 16:43:00,
2013-04-14 11:53:00,61.0,54.0,29.84,SSE,158,11.0,16.0,77,0.00,,,0.00,,2013-04-14 16:53:00,
2013-04-14 12:02:00,63.0,54.0,29.83,South,180,11.0,17.0,73,0.00,,,0.00,,2013-04-14 17:02:00,
2013-04-14 12:12:00,63.0,54.0,29.83,South,180,11.0,17.0,73,0.00,,,0.00,,2013-04-14 17:12:00,
2013-04-14 12:22:00,64.0,53.0,29.82,South,170,13.0,19.0,67,0.00,,,0.00,,2013-04-14 17:22:00,
2013-04-14 12:32:00,65.0,53.0,29.81,SSE,157,13.0,20.0,66,0.00,,,0.00,,2013-04-14 17:32:00,
2013-04-14 12:42:00,65.0,53.0,29.81,SSE,157,13.0,20.0,66,0.00,,,0.00,,2013-04-14 17:42:00,
2013-04-14 12:52:00,66.0,56.0,29.80,South,177,11.0,17.0,69,0.00,,,0.00,,2013-04-14 17:52:00,
2013-04-14 13:02:00,66.0,54.0,29.80,South,173,13.0,17.0,65,0.00,,,0.00,,2013-04-14 18:02:00,
2013-04-14 13:12:00,66.0,54.0,29.80,South,173,13.0,17.0,65,0.00,,,0.00,,2013-04-14 18:12:00,
2013-04-14 13:22:00,67.0,56.0,29.79,SSE,159,12.0,19.0,67,0.00,,,0.00,,2013-04-14 18:22:00,
2013-04-14 13:32:00,67.0,55.0,29.79,South,176,11.0,19.0,65,0.00,,,0.00,,2013-04-14 18:32:00,
2013-04-14 13:43:00,67.0,55.0,29.79,South,176,11.0,19.0,65,0.00,,,0.00,,2013-04-14 18:43:00,
2013-04-14 13:52:00,67.0,54.0,29.79,South,171,15.0,21.0,63,0.00,,,0.00,,2013-04-14 18:52:00,
2013-04-14 14:03:00,68.0,54.0,29.78,South,175,11.0,21.0,61,0.00,,,0.00,,2013-04-14 19:03:00,
2013-04-14 14:12:00,68.0,54.0,29.78,South,175,11.0,21.0,61,0.00,,,0.00,,2013-04-14 19:12:00,
2013-04-14 14:22:00,68.0,55.0,29.77,SSE,163,13.0,22.0,64,0.00,,,0.00,,2013-04-14 19:22:00,
2013-04-14 14:32:00,69.0,56.0,29.76,South,175,15.0,22.0,64,0.00,,,0.00,,2013-04-14 19:32:00,
2013-04-14 14:42:00,69.0,56.0,29.76,South,175,15.0,22.0,64,0.00,,,0.00,,2013-04-14 19:42:00,
2013-04-14 14:52:00,70.0,56.0,29.75,SSE,148,13.0,24.0,61,0.00,,,0.00,,2013-04-14 19:52:00,
2013-04-14 15:02:00,70.0,55.0,29.74,South,184,13.0,24.0,60,0.00,,,0.00,,2013-04-14 20:02:00,
2013-04-14 15:12:00,70.0,55.0,29.74,South,184,13.0,24.0,60,0.00,,,0.00,,2013-04-14 20:12:00,
2013-04-14 15:22:00,71.0,53.0,29.73,SSE,166,14.0,20.0,53,0.00,,,0.00,,2013-04-14 20:22:00,
2013-04-14 15:33:00,71.0,52.0,29.72,SSE,167,13.0,21.0,52,0.00,,,0.00,,2013-04-14 20:33:00,
2013-04-14 15:42:00,71.0,52.0,29.72,SSE,167,13.0,21.0,52,0.00,,,0.00,,2013-04-14 20:42:00,
2013-04-14 15:52:00,71.0,53.0,29.72,SSE,161,12.0,26.0,53,0.00,,,0.00,,2013-04-14 20:52:00,
2013-04-14 16:02:00,71.0,53.0,29.71,South,184,13.0,25.0,53,0.00,,,0.00,,2013-04-14 21:02:00,
2013-04-14 16:12:00,71.0,53.0,29.71,South,184,13.0,25.0,53,0.00,,,0.00,,2013-04-14 21:12:00,
2013-04-14 16:23:00,71.0,54.0,29.71,South,170,13.0,23.0,55,0.00,,,0.00,,2013-04-14 21:23:00,
2013-04-14 16:33:00,71.0,54.0,29.70,SSE,158,16.0,22.0,54,0.00,,,0.00,,2013-04-14 21:33:00,
2013-04-14 16:43:00,71.0,54.0,29.70,SSE,158,16.0,22.0,54,0.00,,,0.00,,2013-04-14 21:43:00,
2013-04-14 16:53:00,71.0,52.0,29.70,South,171,16.0,24.0,51,0.00,,,0.00,,2013-04-14 21:53:00,
2013-04-14 17:03:00,71.0,52.0,29.70,SE,146,14.0,24.0,52,0.00,,,0.00,,2013-04-14 22:03:00,
2013-04-14 17:12:00,71.0,52.0,29.70,SE,146,14.0,24.0,52,0.00,,,0.00,,2013-04-14 22:12:00,
2013-04-14 17:23:00,70.0,50.0,29.69,SSE,167,16.0,27.0,50,0.00,,,0.00,,2013-04-14 22:23:00,
2013-04-14 17:33:00,70.0,50.0,29.69,SSE,162,18.0,26.0,50,0.00,,,0.00,,2013-04-14 22:33:00,
2013-04-14 17:43:00,70.0,50.0,29.69,SSE,162,18.0,26.0,50,0.00,,,0.00,,2013-04-14 22:43:00,
2013-04-14 17:52:00,70.0,52.0,29.68,South,171,16.0,25.0,52,0.00,,,0.00,,2013-04-14 22:52:00,
2013-04-14 18:02:00,68.0,50.0,29.68,SSE,160,14.0,20.0,53,0.00,,,0.00,,2013-04-14 23:02:00,
2013-04-14 18:12:00,68.0,50.0,29.68,SSE,160,14.0,20.0,53,0.00,,,0.00,,2013-04-14 23:12:00,
2013-04-14 18:22:00,69.0,52.0,29.68,SSE,148,13.0,21.0,54,0.00,,,0.00,,2013-04-14 23:22:00,
2013-04-14 18:33:00,68.0,51.0,29.68,SSE,162,13.0,22.0,55,0.00,,,0.00,,2013-04-14 23:33:00,
2013-04-14 18:42:00,68.0,51.0,29.68,SSE,162,13.0,22.0,55,0.00,,,0.00,,2013-04-14 23:42:00,
2013-04-14 18:52:00,67.0,51.0,29.68,SE,146,14.0,22.0,56,0.00,,,0.00,,2013-04-14 23:52:00,
2013-04-14 19:02:00,66.0,51.0,29.67,SE,146,11.0,20.0,59,0.00,,,0.00,,2013-04-15 00:02:00,
2013-04-14 19:12:00,66.0,51.0,29.67,SE,146,11.0,20.0,59,0.00,,,0.00,,2013-04-15 00:12:00,
2013-04-14 19:23:00,65.0,51.0,29.67,SSE,158,13.0,18.0,61,0.00,,,0.00,,2013-04-15 00:23:00,
2013-04-14 19:33:00,64.0,51.0,29.67,SSE,150,13.0,21.0,62,0.00,,,0.00,,2013-04-15 00:33:00,
2013-04-14 19:42:00,64.0,51.0,29.67,SSE,150,13.0,21.0,62,0.00,,,0.00,,2013-04-15 00:42:00,
2013-04-14 19:52:00,63.0,50.0,29.67,SE,142,15.0,23.0,63,0.00,,,0.00,,2013-04-15 00:52:00,
2013-04-14 20:02:00,63.0,51.0,29.67,SE,144,14.0,20.0,64,0.00,,,0.00,,2013-04-15 01:02:00,
2013-04-14 20:12:00,63.0,51.0,29.67,SE,144,14.0,20.0,64,0.00,,,0.00,,2013-04-15 01:12:00,
2013-04-14 20:23:00,62.0,51.0,29.67,SSE,161,13.0,19.0,67,0.00,,,0.00,,2013-04-15 01:23:00,
2013-04-14 20:32:00,62.0,51.0,29.68,SSE,156,15.0,22.0,67,0.00,,,0.00,,2013-04-15 01:32:00,
2013-04-14 20:42:00,62.0,51.0,29.68,SSE,156,15.0,22.0,67,0.00,,,0.00,,2013-04-15 01:42:00,
2013-04-14 20:52:00,62.0,51.0,29.68,SSE,155,16.0,21.0,66,0.00,,,0.00,,2013-04-15 01:52:00,
2013-04-14 21:03:00,61.0,50.0,29.69,SSE,153,12.0,17.0,68,0.00,,,0.00,,2013-04-15 02:03:00,
2013-04-14 21:12:00,61.0,50.0,29.69,SSE,153,12.0,17.0,68,0.00,,,0.00,,2013-04-15 02:12:00,
2013-04-14 21:22:00,61.0,50.0,29.69,SSE,161,15.0,21.0,67,0.00,,,0.00,,2013-04-15 02:22:00,
2013-04-14 21:32:00,61.0,51.0,29.69,SSE,155,14.0,20.0,69,0.00,,,0.00,,2013-04-15 02:32:00,
2013-04-14 21:42:00,61.0,51.0,29.69,SSE,155,14.0,20.0,69,0.00,,,0.00,,2013-04-15 02:42:00,
2013-04-14 21:52:00,61.0,51.0,29.70,SSE,162,14.0,21.0,69,0.00,,,0.00,,2013-04-15 02:52:00,
2013-04-14 22:03:00,61.0,50.0,29.70,SSE,156,13.0,21.0,68,0.00,,,0.00,,2013-04-15 03:03:00,
2013-04-14 22:12:00,61.0,50.0,29.70,SSE,156,13.0,21.0,68,0.00,,,0.00,,2013-04-15 03:12:00,
2013-04-14 22:22:00,60.0,50.0,29.70,SSE,154,11.0,18.0,70,0.00,,,0.00,,2013-04-15 03:22:00,
2013-04-14 22:33:00,59.0,50.0,29.71,SSE,168,10.0,16.0,71,0.00,,,0.00,,2013-04-15 03:33:00,
2013-04-14 22:43:00,59.0,50.0,29.71,SSE,168,10.0,16.0,71,0.00,,,0.00,,2013-04-15 03:43:00,
2013-04-14 22:54:00,59.0,50.0,29.71,South,175,10.0,14.0,73,0.00,,,0.00,,2013-04-15 03:54:00,
2013-04-14 23:03:00,59.0,50.0,29.71,SSE,148,12.0,19.0,73,0.00,,,0.00,,2013-04-15 04:03:00,
2013-04-14 23:13:00,59.0,50.0,29.71,SSE,148,12.0,19.0,73,0.00,,,0.00,,2013-04-15 04:13:00,
2013-04-14 23:23:00,60.0,51.0,29.72,SSW,196,12.0,20.0,71,0.00,,,0.00,,2013-04-15 04:23:00,
2013-04-14 23:33:00,60.0,50.0,29.73,South,182,12.0,22.0,69,0.00,,,0.00,,2013-04-15 04:33:00,
2013-04-14 23:42:00,60.0,50.0,29.73,South,182,12.0,22.0,69,0.00,,,0.00,,2013-04-15 04:42:00,
2013-04-14 23:52:00,60.0,49.0,29.72,South,176,15.0,24.0,68,0.00,,,0.00,,2013-04-15 04:52:00,